sensor_id;sensor_type;location;lat;lon;timestamp;noise_LAeq;noise_LA_min;noise_LA_max;noise_LA01;noise_LA95
72028;Laerm;59781;52.090;5.030;2022-07-23T00:00:08;37.61;35.00;42.35;;
72028;Laerm;59781;52.090;5.030;2022-07-23T00:03:07;37.87;34.17;45.63;;
72028;Laerm;59781;52.090;5.030;2022-07-23T00:05:53;37.08;34.59;43.54;;
72028;Laerm;59781;52.090;5.030;2022-07-23T00:09:05;37.61;34.65;49.99;;
72028;Laerm;59781;52.090;5.030;2022-07-23T00:20:37;38.65;34.96;46.54;;
72028;Laerm;59781;52.090;5.030;2022-07-23T00:23:03;39.55;34.86;53.72;;
72028;Laerm;59781;52.090;5.030;2022-07-23T04:37:49;37.95;35.12;54.27;;
72028;Laerm;59781;52.090;5.030;2022-07-23T05:04:15;46.16;35.45;56.96;;
72028;Laerm;59781;52.090;5.030;2022-07-23T05:10:43;38.98;35.44;53.31;;
72028;Laerm;59781;52.090;5.030;2022-07-23T05:14:00;55.13;35.21;68.15;;
72028;Laerm;59781;52.090;5.030;2022-07-23T05:16:26;52.66;36.10;64.87;;
72028;Laerm;59781;52.090;5.030;2022-07-23T05:18:56;38.08;35.41;44.89;;
72028;Laerm;59781;52.090;5.030;2022-07-23T05:22:05;45.53;35.56;58.73;;
72028;Laerm;59781;52.090;5.030;2022-07-23T05:47:50;38.02;35.16;55.31;;
72028;Laerm;59781;52.090;5.030;2022-07-23T05:59:01;42.39;34.69;72.50;;
72028;Laerm;59781;52.090;5.030;2022-07-23T06:05:20;40.91;35.30;60.10;;
72028;Laerm;59781;52.090;5.030;2022-07-23T06:08:38;38.90;34.79;53.92;;
72028;Laerm;59781;52.090;5.030;2022-07-23T06:15:45;40.21;35.28;60.30;;
72028;Laerm;59781;52.090;5.030;2022-07-23T06:18:10;40.90;34.78;62.35;;
72028;Laerm;59781;52.090;5.030;2022-07-23T06:20:38;38.53;35.25;57.05;;
72028;Laerm;59781;52.090;5.030;2022-07-23T06:23:04;38.05;35.32;47.86;;
72028;Laerm;59781;52.090;5.030;2022-07-23T06:33:25;54.18;36.43;67.50;;
72028;Laerm;59781;52.090;5.030;2022-07-23T07:39:01;45.34;35.71;74.25;;
72028;Laerm;59781;52.090;5.030;2022-07-23T07:42:17;42.17;36.92;56.88;;
72028;Laerm;59781;52.090;5.030;2022-07-23T07:45:34;44.91;36.10;61.48;;
72028;Laerm;59781;52.090;5.030;2022-07-23T07:48:00;41.35;37.38;56.32;;
72028;Laerm;59781;52.090;5.030;2022-07-23T07:51:03;42.40;36.91;58.56;;
72028;Laerm;59781;52.090;5.030;2022-07-23T07:54:58;42.35;37.05;58.48;;
72028;Laerm;59781;52.090;5.030;2022-07-23T07:57:57;54.76;37.19;87.98;;
72028;Laerm;59781;52.090;5.030;2022-07-23T08:14:14;48.35;36.71;69.48;;
72028;Laerm;59781;52.090;5.030;2022-07-23T08:17:25;43.40;36.31;63.04;;
72028;Laerm;59781;52.090;5.030;2022-07-23T08:21:03;41.32;36.50;60.50;;
72028;Laerm;59781;52.090;5.030;2022-07-23T08:23:34;40.23;36.57;56.15;;
72028;Laerm;59781;52.090;5.030;2022-07-23T08:26:00;39.99;35.84;47.05;;
72028;Laerm;59781;52.090;5.030;2022-07-23T08:28:59;42.57;36.16;61.09;;
72028;Laerm;59781;52.090;5.030;2022-07-23T08:32:08;40.82;36.73;51.32;;
72028;Laerm;59781;52.090;5.030;2022-07-23T08:35:14;40.21;35.99;53.00;;
72028;Laerm;59781;52.090;5.030;2022-07-23T09:03:28;40.15;36.44;59.97;;
72028;Laerm;59781;52.090;5.030;2022-07-23T09:07:30;47.02;37.39;62.35;;
72028;Laerm;59781;52.090;5.030;2022-07-23T09:11:18;40.89;37.00;51.47;;
72028;Laerm;59781;52.090;5.030;2022-07-23T09:13:52;43.80;37.39;59.02;;
72028;Laerm;59781;52.090;5.030;2022-07-23T09:17:17;43.06;36.73;69.27;;
72028;Laerm;59781;52.090;5.030;2022-07-23T09:21:24;40.62;36.48;54.77;;
72028;Laerm;59781;52.090;5.030;2022-07-23T09:23:59;45.16;36.95;61.19;;
72028;Laerm;59781;52.090;5.030;2022-07-23T09:31:00;50.15;36.56;78.75;;
72028;Laerm;59781;52.090;5.030;2022-07-23T09:34:01;59.10;37.42;89.71;;
72028;Laerm;59781;52.090;5.030;2022-07-23T09:36:49;40.37;36.75;56.41;;
72028;Laerm;59781;52.090;5.030;2022-07-23T09:39:29;54.24;36.53;80.04;;
72028;Laerm;59781;52.090;5.030;2022-07-23T09:41:56;40.25;36.47;51.16;;
72028;Laerm;59781;52.090;5.030;2022-07-23T09:45:21;42.74;37.83;56.41;;
72028;Laerm;59781;52.090;5.030;2022-07-23T09:48:17;50.85;36.54;81.93;;
72028;Laerm;59781;52.090;5.030;2022-07-23T09:51:44;41.43;36.57;55.36;;
72028;Laerm;59781;52.090;5.030;2022-07-23T09:55:05;43.05;37.02;66.30;;
72028;Laerm;59781;52.090;5.030;2022-07-23T10:06:34;43.61;36.97;59.03;;
72028;Laerm;59781;52.090;5.030;2022-07-23T10:10:32;49.45;36.89;73.68;;
72028;Laerm;59781;52.090;5.030;2022-07-23T10:13:50;40.02;36.07;55.81;;
72028;Laerm;59781;52.090;5.030;2022-07-23T10:16:48;39.43;36.27;55.02;;
72028;Laerm;59781;52.090;5.030;2022-07-23T10:19:13;58.43;36.49;89.29;;
72028;Laerm;59781;52.090;5.030;2022-07-23T10:21:52;42.78;37.06;57.26;;
72028;Laerm;59781;52.090;5.030;2022-07-23T10:30:20;45.49;37.24;57.00;;
72028;Laerm;59781;52.090;5.030;2022-07-23T10:36:52;45.00;38.42;51.68;;
72028;Laerm;59781;52.090;5.030;2022-07-23T10:39:28;42.95;36.74;58.11;;
72028;Laerm;59781;52.090;5.030;2022-07-23T10:42:17;41.21;37.72;47.70;;
72028;Laerm;59781;52.090;5.030;2022-07-23T10:44:46;41.94;36.50;53.48;;
72028;Laerm;59781;52.090;5.030;2022-07-23T10:47:28;48.14;37.74;61.68;;
72028;Laerm;59781;52.090;5.030;2022-07-23T10:50:30;44.06;37.76;57.28;;
72028;Laerm;59781;52.090;5.030;2022-07-23T10:55:51;41.17;37.29;48.28;;
72028;Laerm;59781;52.090;5.030;2022-07-23T10:58:51;40.94;37.52;49.35;;
72028;Laerm;59781;52.090;5.030;2022-07-23T11:01:38;42.88;37.03;55.37;;
72028;Laerm;59781;52.090;5.030;2022-07-23T11:04:51;40.25;36.62;44.98;;
72028;Laerm;59781;52.090;5.030;2022-07-23T11:07:17;40.97;36.41;59.00;;
72028;Laerm;59781;52.090;5.030;2022-07-23T11:10:51;41.52;36.99;55.49;;
72028;Laerm;59781;52.090;5.030;2022-07-23T11:13:41;44.39;37.43;68.35;;
72028;Laerm;59781;52.090;5.030;2022-07-23T11:16:55;40.67;37.08;63.26;;
72028;Laerm;59781;52.090;5.030;2022-07-23T11:19:20;58.34;36.59;89.82;;
72028;Laerm;59781;52.090;5.030;2022-07-23T11:22:49;54.22;37.15;90.49;;
72028;Laerm;59781;52.090;5.030;2022-07-23T11:26:48;43.82;37.25;50.67;;
72028;Laerm;59781;52.090;5.030;2022-07-23T11:32:27;45.50;37.41;58.09;;
72028;Laerm;59781;52.090;5.030;2022-07-23T11:52:29;43.90;39.07;66.79;;
72028;Laerm;59781;52.090;5.030;2022-07-23T11:55:31;42.26;37.48;52.66;;
72028;Laerm;59781;52.090;5.030;2022-07-23T11:59:06;40.29;36.76;46.10;;
72028;Laerm;59781;52.090;5.030;2022-07-23T12:23:11;41.59;37.50;53.78;;
72028;Laerm;59781;52.090;5.030;2022-07-23T12:25:44;42.40;38.17;50.64;;
72028;Laerm;59781;52.090;5.030;2022-07-23T12:40:24;43.12;38.58;57.18;;
72028;Laerm;59781;52.090;5.030;2022-07-23T12:57:11;41.40;36.66;53.10;;
72028;Laerm;59781;52.090;5.030;2022-07-23T13:00:20;45.21;37.44;68.23;;
72028;Laerm;59781;52.090;5.030;2022-07-23T13:03:20;42.71;37.91;48.29;;
72028;Laerm;59781;52.090;5.030;2022-07-23T13:05:46;42.95;37.65;61.76;;
72028;Laerm;59781;52.090;5.030;2022-07-23T13:08:12;48.44;37.20;79.61;;
72028;Laerm;59781;52.090;5.030;2022-07-23T13:10:38;44.08;37.74;64.51;;
72028;Laerm;59781;52.090;5.030;2022-07-23T13:13:49;45.09;37.36;75.88;;
72028;Laerm;59781;52.090;5.030;2022-07-23T13:16:49;42.69;38.48;50.33;;
72028;Laerm;59781;52.090;5.030;2022-07-23T13:20:28;43.02;37.45;66.07;;
72028;Laerm;59781;52.090;5.030;2022-07-23T13:22:54;44.19;37.73;62.46;;
72028;Laerm;59781;52.090;5.030;2022-07-23T13:26:07;44.59;37.70;69.39;;
72028;Laerm;59781;52.090;5.030;2022-07-23T13:28:38;46.05;38.69;77.89;;
72028;Laerm;59781;52.090;5.030;2022-07-23T13:31:04;48.02;38.99;60.58;;
72028;Laerm;59781;52.090;5.030;2022-07-23T13:33:30;41.58;38.37;49.27;;
72028;Laerm;59781;52.090;5.030;2022-07-23T13:36:01;49.46;38.29;61.47;;
72028;Laerm;59781;52.090;5.030;2022-07-23T13:38:31;46.53;37.61;68.63;;
72028;Laerm;59781;52.090;5.030;2022-07-23T13:41:13;45.29;37.39;60.46;;
72028;Laerm;59781;52.090;5.030;2022-07-23T13:43:49;44.68;38.12;64.77;;
72028;Laerm;59781;52.090;5.030;2022-07-23T13:46:41;42.29;37.74;52.93;;
72028;Laerm;59781;52.090;5.030;2022-07-23T13:49:11;41.94;36.65;52.54;;
72028;Laerm;59781;52.090;5.030;2022-07-23T13:51:36;41.81;37.48;57.51;;
72028;Laerm;59781;52.090;5.030;2022-07-23T13:54:02;40.78;37.06;47.73;;
72028;Laerm;59781;52.090;5.030;2022-07-23T13:56:30;41.08;36.90;58.11;;
72028;Laerm;59781;52.090;5.030;2022-07-23T13:59:01;40.75;36.52;50.53;;
72028;Laerm;59781;52.090;5.030;2022-07-23T14:01:34;40.59;37.06;48.42;;
72028;Laerm;59781;52.090;5.030;2022-07-23T14:04:01;44.54;38.32;56.34;;
72028;Laerm;59781;52.090;5.030;2022-07-23T14:06:27;41.17;37.38;54.04;;
72028;Laerm;59781;52.090;5.030;2022-07-23T14:08:52;41.34;37.33;48.05;;
72028;Laerm;59781;52.090;5.030;2022-07-23T14:11:26;41.26;37.27;58.34;;
72028;Laerm;59781;52.090;5.030;2022-07-23T14:14:08;40.49;36.94;56.07;;
72028;Laerm;59781;52.090;5.030;2022-07-23T14:16:45;44.68;36.93;70.99;;
72028;Laerm;59781;52.090;5.030;2022-07-23T14:19:38;41.61;36.58;66.90;;
72028;Laerm;59781;52.090;5.030;2022-07-23T14:22:14;52.81;37.38;68.38;;
72028;Laerm;59781;52.090;5.030;2022-07-23T14:24:41;50.42;37.59;65.73;;
72028;Laerm;59781;52.090;5.030;2022-07-23T14:27:06;42.51;36.82;60.24;;
72028;Laerm;59781;52.090;5.030;2022-07-23T14:29:33;44.50;37.54;53.95;;
72028;Laerm;59781;52.090;5.030;2022-07-23T14:32:01;41.33;37.49;52.47;;
72028;Laerm;59781;52.090;5.030;2022-07-23T14:34:53;51.29;37.20;72.64;;
72028;Laerm;59781;52.090;5.030;2022-07-23T14:37:33;42.35;37.10;55.62;;
72028;Laerm;59781;52.090;5.030;2022-07-23T14:40:54;40.46;37.20;56.25;;
72028;Laerm;59781;52.090;5.030;2022-07-23T14:43:39;39.94;36.88;47.51;;
72028;Laerm;59781;52.090;5.030;2022-07-23T14:46:09;41.45;37.03;57.21;;
72028;Laerm;59781;52.090;5.030;2022-07-23T14:48:36;41.57;37.82;63.02;;
72028;Laerm;59781;52.090;5.030;2022-07-23T14:51:03;41.41;36.60;63.12;;
72028;Laerm;59781;52.090;5.030;2022-07-23T14:53:54;39.83;36.31;52.66;;
72028;Laerm;59781;52.090;5.030;2022-07-23T14:57:20;43.69;36.71;60.20;;
72028;Laerm;59781;52.090;5.030;2022-07-23T15:00:11;40.46;36.74;55.59;;
72028;Laerm;59781;52.090;5.030;2022-07-23T15:02:57;41.28;36.48;56.73;;
72028;Laerm;59781;52.090;5.030;2022-07-23T15:05:46;42.11;37.13;54.19;;
72028;Laerm;59781;52.090;5.030;2022-07-23T15:08:13;43.37;36.63;75.02;;
72028;Laerm;59781;52.090;5.030;2022-07-23T15:10:39;40.97;36.65;53.79;;
72028;Laerm;59781;52.090;5.030;2022-07-23T15:13:05;43.55;37.32;57.78;;
72028;Laerm;59781;52.090;5.030;2022-07-23T15:16:18;42.41;37.55;60.19;;
72028;Laerm;59781;52.090;5.030;2022-07-23T15:19:08;50.27;37.08;80.86;;
72028;Laerm;59781;52.090;5.030;2022-07-23T15:21:50;49.89;36.46;73.70;;
72028;Laerm;59781;52.090;5.030;2022-07-23T15:24:18;42.32;37.24;61.46;;
72028;Laerm;59781;52.090;5.030;2022-07-23T15:26:44;47.60;37.04;74.63;;
72028;Laerm;59781;52.090;5.030;2022-07-23T15:29:09;42.95;37.11;62.38;;
72028;Laerm;59781;52.090;5.030;2022-07-23T15:31:35;44.38;36.56;73.09;;
72028;Laerm;59781;52.090;5.030;2022-07-23T15:34:01;44.13;36.73;75.93;;
72028;Laerm;59781;52.090;5.030;2022-07-23T15:36:28;41.80;36.61;65.43;;
72028;Laerm;59781;52.090;5.030;2022-07-23T15:39:32;48.48;37.25;62.82;;
72028;Laerm;59781;52.090;5.030;2022-07-23T15:42:05;42.33;36.94;62.68;;
72028;Laerm;59781;52.090;5.030;2022-07-23T15:45:27;48.16;37.53;66.69;;
72028;Laerm;59781;52.090;5.030;2022-07-23T15:48:37;47.62;37.68;66.66;;
72028;Laerm;59781;52.090;5.030;2022-07-23T15:51:04;48.81;36.67;63.21;;
72028;Laerm;59781;52.090;5.030;2022-07-23T15:54:25;41.39;36.40;57.65;;
72028;Laerm;59781;52.090;5.030;2022-07-23T15:57:00;64.73;36.45;100.43;;
72028;Laerm;59781;52.090;5.030;2022-07-23T15:59:25;61.87;37.47;93.70;;
72028;Laerm;59781;52.090;5.030;2022-07-23T16:01:51;50.97;36.79;77.84;;
72028;Laerm;59781;52.090;5.030;2022-07-23T16:04:17;45.00;36.00;77.23;;
72028;Laerm;59781;52.090;5.030;2022-07-23T16:06:43;45.03;36.57;59.74;;
72028;Laerm;59781;52.090;5.030;2022-07-23T16:09:09;45.35;37.31;65.18;;
72028;Laerm;59781;52.090;5.030;2022-07-23T16:11:34;48.16;37.61;62.13;;
72028;Laerm;59781;52.090;5.030;2022-07-23T16:14:00;48.02;37.10;61.10;;
72028;Laerm;59781;52.090;5.030;2022-07-23T16:16:27;44.73;37.06;56.66;;
72028;Laerm;59781;52.090;5.030;2022-07-23T16:18:57;42.65;36.22;57.66;;
72028;Laerm;59781;52.090;5.030;2022-07-23T16:21:24;44.73;35.91;61.54;;
72028;Laerm;59781;52.090;5.030;2022-07-23T16:23:50;40.81;36.26;52.03;;
72028;Laerm;59781;52.090;5.030;2022-07-23T16:26:18;40.88;36.18;63.16;;
72028;Laerm;59781;52.090;5.030;2022-07-23T16:28:46;43.18;35.76;59.59;;
72028;Laerm;59781;52.090;5.030;2022-07-23T16:31:13;41.40;35.93;61.30;;
72028;Laerm;59781;52.090;5.030;2022-07-23T16:33:40;41.68;36.45;65.89;;
72028;Laerm;59781;52.090;5.030;2022-07-23T16:36:07;43.25;36.57;67.24;;
72028;Laerm;59781;52.090;5.030;2022-07-23T16:38:35;45.99;36.16;77.88;;
72028;Laerm;59781;52.090;5.030;2022-07-23T16:41:02;40.61;36.17;58.80;;
72028;Laerm;59781;52.090;5.030;2022-07-23T16:43:28;39.42;35.95;50.81;;
72028;Laerm;59781;52.090;5.030;2022-07-23T16:45:56;41.71;36.51;53.84;;
72028;Laerm;59781;52.090;5.030;2022-07-23T16:48:21;41.19;36.44;52.38;;
72028;Laerm;59781;52.090;5.030;2022-07-23T16:50:47;41.05;36.15;57.41;;
72028;Laerm;59781;52.090;5.030;2022-07-23T16:53:13;41.46;35.98;58.21;;
72028;Laerm;59781;52.090;5.030;2022-07-23T16:55:39;39.92;35.79;54.50;;
72028;Laerm;59781;52.090;5.030;2022-07-23T16:58:05;43.16;36.09;59.85;;
72028;Laerm;59781;52.090;5.030;2022-07-23T17:00:32;42.96;36.49;59.12;;
72028;Laerm;59781;52.090;5.030;2022-07-23T17:02:58;41.81;36.20;61.19;;
72028;Laerm;59781;52.090;5.030;2022-07-23T17:05:24;41.94;35.84;58.35;;
72028;Laerm;59781;52.090;5.030;2022-07-23T17:07:51;40.96;35.75;57.64;;
72028;Laerm;59781;52.090;5.030;2022-07-23T17:10:21;43.13;36.21;64.11;;
72028;Laerm;59781;52.090;5.030;2022-07-23T17:12:49;42.21;36.02;61.06;;
72028;Laerm;59781;52.090;5.030;2022-07-23T17:15:19;44.32;36.23;63.34;;
72028;Laerm;59781;52.090;5.030;2022-07-23T17:17:46;43.57;36.53;61.01;;
72028;Laerm;59781;52.090;5.030;2022-07-23T17:20:13;43.37;35.69;59.76;;
72028;Laerm;59781;52.090;5.030;2022-07-23T17:22:39;41.51;35.60;62.31;;
72028;Laerm;59781;52.090;5.030;2022-07-23T17:25:08;45.35;36.34;71.35;;
72028;Laerm;59781;52.090;5.030;2022-07-23T17:27:40;42.51;35.70;59.10;;
72028;Laerm;59781;52.090;5.030;2022-07-23T17:30:07;45.78;35.93;62.98;;
72028;Laerm;59781;52.090;5.030;2022-07-23T17:32:33;44.19;36.88;57.80;;
72028;Laerm;59781;52.090;5.030;2022-07-23T17:34:58;41.18;35.62;58.91;;
72028;Laerm;59781;52.090;5.030;2022-07-23T17:37:24;42.86;36.07;64.51;;
72028;Laerm;59781;52.090;5.030;2022-07-23T17:39:50;43.71;36.39;57.88;;
72028;Laerm;59781;52.090;5.030;2022-07-23T17:42:15;49.32;36.01;83.11;;
72028;Laerm;59781;52.090;5.030;2022-07-23T17:44:41;43.51;36.07;59.48;;
72028;Laerm;59781;52.090;5.030;2022-07-23T17:47:07;45.78;36.82;69.33;;
72028;Laerm;59781;52.090;5.030;2022-07-23T17:49:33;50.25;37.14;61.76;;
72028;Laerm;59781;52.090;5.030;2022-07-23T17:52:04;46.53;36.29;61.43;;
72028;Laerm;59781;52.090;5.030;2022-07-23T17:54:31;45.15;36.25;65.36;;
72028;Laerm;59781;52.090;5.030;2022-07-23T17:56:59;43.88;35.45;61.15;;
72028;Laerm;59781;52.090;5.030;2022-07-23T17:59:25;45.00;35.85;61.58;;
72028;Laerm;59781;52.090;5.030;2022-07-23T18:01:51;43.88;35.79;60.02;;
72028;Laerm;59781;52.090;5.030;2022-07-23T18:04:19;42.13;35.23;59.27;;
72028;Laerm;59781;52.090;5.030;2022-07-23T18:06:45;45.13;36.20;55.13;;
72028;Laerm;59781;52.090;5.030;2022-07-23T18:09:13;44.52;35.81;50.65;;
72028;Laerm;59781;52.090;5.030;2022-07-23T18:11:41;40.34;35.66;52.77;;
72028;Laerm;59781;52.090;5.030;2022-07-23T18:14:09;41.31;35.18;53.25;;
72028;Laerm;59781;52.090;5.030;2022-07-23T18:16:37;40.54;35.49;55.90;;
72028;Laerm;59781;52.090;5.030;2022-07-23T18:19:04;42.70;35.29;49.76;;
72028;Laerm;59781;52.090;5.030;2022-07-23T18:21:34;45.30;35.26;64.05;;
72028;Laerm;59781;52.090;5.030;2022-07-23T18:24:03;42.71;35.54;60.69;;
72028;Laerm;59781;52.090;5.030;2022-07-23T18:26:29;43.25;35.27;57.10;;
72028;Laerm;59781;52.090;5.030;2022-07-23T18:28:55;46.03;35.51;63.78;;
72028;Laerm;59781;52.090;5.030;2022-07-23T18:31:20;45.52;36.18;60.78;;
72028;Laerm;59781;52.090;5.030;2022-07-23T18:33:47;42.71;35.94;62.08;;
72028;Laerm;59781;52.090;5.030;2022-07-23T18:36:13;41.12;35.47;54.05;;
72028;Laerm;59781;52.090;5.030;2022-07-23T18:38:39;49.75;37.31;62.15;;
72028;Laerm;59781;52.090;5.030;2022-07-23T18:41:05;44.38;36.46;73.16;;
72028;Laerm;59781;52.090;5.030;2022-07-23T18:43:31;42.58;35.44;53.97;;
72028;Laerm;59781;52.090;5.030;2022-07-23T18:45:59;47.56;36.12;75.20;;
72028;Laerm;59781;52.090;5.030;2022-07-23T18:48:27;49.91;37.99;76.38;;
72028;Laerm;59781;52.090;5.030;2022-07-23T18:50:53;44.93;37.65;64.24;;
72028;Laerm;59781;52.090;5.030;2022-07-23T18:53:19;40.37;35.49;62.35;;
72028;Laerm;59781;52.090;5.030;2022-07-23T18:55:44;44.49;36.78;69.77;;
72028;Laerm;59781;52.090;5.030;2022-07-23T18:58:10;43.97;37.15;55.30;;
72028;Laerm;59781;52.090;5.030;2022-07-23T19:00:38;43.25;35.78;62.67;;
72028;Laerm;59781;52.090;5.030;2022-07-23T19:03:04;39.24;35.43;54.38;;
72028;Laerm;59781;52.090;5.030;2022-07-23T19:05:30;47.87;36.02;61.61;;
72028;Laerm;59781;52.090;5.030;2022-07-23T19:07:56;51.70;35.50;86.69;;
72028;Laerm;59781;52.090;5.030;2022-07-23T19:10:23;39.17;35.27;47.43;;
72028;Laerm;59781;52.090;5.030;2022-07-23T19:12:48;39.99;35.73;53.86;;
72028;Laerm;59781;52.090;5.030;2022-07-23T19:15:15;41.95;35.76;55.70;;
72028;Laerm;59781;52.090;5.030;2022-07-23T19:17:41;42.31;36.22;69.57;;
72028;Laerm;59781;52.090;5.030;2022-07-23T19:20:10;43.44;37.07;61.61;;
72028;Laerm;59781;52.090;5.030;2022-07-23T19:22:36;44.53;36.57;63.59;;
72028;Laerm;59781;52.090;5.030;2022-07-23T19:25:03;45.97;36.27;70.30;;
72028;Laerm;59781;52.090;5.030;2022-07-23T19:27:29;46.34;39.00;51.68;;
72028;Laerm;59781;52.090;5.030;2022-07-23T19:29:55;43.31;35.57;63.18;;
72028;Laerm;59781;52.090;5.030;2022-07-23T19:32:21;46.95;36.90;69.68;;
72028;Laerm;59781;52.090;5.030;2022-07-23T19:34:46;46.77;40.13;66.32;;
72028;Laerm;59781;52.090;5.030;2022-07-23T19:37:12;50.37;36.76;78.05;;
72028;Laerm;59781;52.090;5.030;2022-07-23T19:39:44;48.06;40.43;66.30;;
72028;Laerm;59781;52.090;5.030;2022-07-23T19:42:11;48.15;39.30;63.20;;
72028;Laerm;59781;52.090;5.030;2022-07-23T19:44:38;44.41;35.67;67.86;;
72028;Laerm;59781;52.090;5.030;2022-07-23T19:47:05;37.74;35.35;43.97;;
72028;Laerm;59781;52.090;5.030;2022-07-23T19:49:31;41.22;36.36;51.09;;
72028;Laerm;59781;52.090;5.030;2022-07-23T19:51:58;41.50;36.93;47.84;;
72028;Laerm;59781;52.090;5.030;2022-07-23T19:54:26;41.29;35.62;52.87;;
72028;Laerm;59781;52.090;5.030;2022-07-23T19:56:52;40.27;36.32;45.31;;
72028;Laerm;59781;52.090;5.030;2022-07-23T19:59:19;40.00;36.10;48.43;;
72028;Laerm;59781;52.090;5.030;2022-07-23T20:01:45;44.08;36.58;56.22;;
72028;Laerm;59781;52.090;5.030;2022-07-23T20:04:11;48.36;35.92;62.50;;
72028;Laerm;59781;52.090;5.030;2022-07-23T20:06:37;47.55;35.16;66.90;;
72028;Laerm;59781;52.090;5.030;2022-07-23T20:09:04;38.66;35.20;44.83;;
72028;Laerm;59781;52.090;5.030;2022-07-23T20:11:30;38.53;35.83;56.73;;
72028;Laerm;59781;52.090;5.030;2022-07-23T20:13:57;38.82;35.94;46.57;;
72028;Laerm;59781;52.090;5.030;2022-07-23T20:16:23;37.87;35.44;45.59;;
72028;Laerm;59781;52.090;5.030;2022-07-23T20:18:48;38.51;35.78;43.57;;
72028;Laerm;59781;52.090;5.030;2022-07-23T20:21:14;38.76;35.65;46.91;;
72028;Laerm;59781;52.090;5.030;2022-07-23T20:23:40;38.05;35.57;42.83;;
72028;Laerm;59781;52.090;5.030;2022-07-23T20:26:06;38.27;35.79;45.80;;
72028;Laerm;59781;52.090;5.030;2022-07-23T20:28:31;43.40;35.12;53.77;;
72028;Laerm;59781;52.090;5.030;2022-07-23T20:30:57;37.46;35.34;53.34;;
72028;Laerm;59781;52.090;5.030;2022-07-23T20:33:24;38.53;35.11;43.10;;
72028;Laerm;59781;52.090;5.030;2022-07-23T20:35:50;38.22;35.43;48.57;;
72028;Laerm;59781;52.090;5.030;2022-07-23T20:38:16;37.43;35.41;49.41;;
72028;Laerm;59781;52.090;5.030;2022-07-23T20:40:43;37.35;35.48;40.96;;
72028;Laerm;59781;52.090;5.030;2022-07-23T20:43:09;38.89;35.58;48.15;;
72028;Laerm;59781;52.090;5.030;2022-07-23T20:45:35;38.56;35.96;47.04;;
72028;Laerm;59781;52.090;5.030;2022-07-23T20:48:02;37.69;35.38;41.81;;
72028;Laerm;59781;52.090;5.030;2022-07-23T20:50:27;37.75;35.34;50.17;;
72028;Laerm;59781;52.090;5.030;2022-07-23T20:52:54;38.09;35.60;45.63;;
72028;Laerm;59781;52.090;5.030;2022-07-23T20:55:21;38.79;35.24;46.39;;
72028;Laerm;59781;52.090;5.030;2022-07-23T20:57:46;38.61;34.88;47.19;;
72028;Laerm;59781;52.090;5.030;2022-07-23T21:00:15;37.43;34.59;43.24;;
72028;Laerm;59781;52.090;5.030;2022-07-23T21:02:42;37.15;34.89;40.95;;
72028;Laerm;59781;52.090;5.030;2022-07-23T21:05:08;37.68;34.94;45.99;;
72028;Laerm;59781;52.090;5.030;2022-07-23T21:07:34;37.92;35.12;45.53;;
72028;Laerm;59781;52.090;5.030;2022-07-23T21:10:00;37.08;35.18;42.65;;
72028;Laerm;59781;52.090;5.030;2022-07-23T21:12:26;37.31;34.52;45.42;;
72028;Laerm;59781;52.090;5.030;2022-07-23T21:14:52;37.08;35.18;42.42;;
72028;Laerm;59781;52.090;5.030;2022-07-23T21:17:20;38.47;34.82;46.18;;
72028;Laerm;59781;52.090;5.030;2022-07-23T21:19:45;37.21;34.94;44.02;;
72028;Laerm;59781;52.090;5.030;2022-07-23T21:22:12;38.20;35.04;44.29;;
72028;Laerm;59781;52.090;5.030;2022-07-23T21:24:39;37.56;35.17;42.24;;
72028;Laerm;59781;52.090;5.030;2022-07-23T21:27:05;37.91;35.10;45.12;;
72028;Laerm;59781;52.090;5.030;2022-07-23T21:29:31;38.39;35.49;44.46;;
72028;Laerm;59781;52.090;5.030;2022-07-23T21:31:58;36.75;34.53;40.15;;
72028;Laerm;59781;52.090;5.030;2022-07-23T21:34:24;39.19;34.97;47.24;;
72028;Laerm;59781;52.090;5.030;2022-07-23T21:36:51;38.06;34.98;54.05;;
72028;Laerm;59781;52.090;5.030;2022-07-23T21:39:18;37.95;35.19;49.13;;
72028;Laerm;59781;52.090;5.030;2022-07-23T21:41:44;37.80;35.42;44.17;;
72028;Laerm;59781;52.090;5.030;2022-07-23T21:44:11;37.72;34.92;47.31;;
72028;Laerm;59781;52.090;5.030;2022-07-23T21:46:37;38.78;35.63;45.84;;
72028;Laerm;59781;52.090;5.030;2022-07-23T21:49:04;39.00;35.43;47.97;;
72028;Laerm;59781;52.090;5.030;2022-07-23T21:51:30;38.57;35.61;47.49;;
72028;Laerm;59781;52.090;5.030;2022-07-23T21:53:57;37.37;35.21;45.05;;
72028;Laerm;59781;52.090;5.030;2022-07-23T21:56:24;38.17;35.35;43.19;;
72028;Laerm;59781;52.090;5.030;2022-07-23T21:58:50;39.21;34.93;57.01;;
72028;Laerm;59781;52.090;5.030;2022-07-23T22:01:16;38.28;35.34;53.78;;
72028;Laerm;59781;52.090;5.030;2022-07-23T22:03:42;37.16;35.12;41.02;;
72028;Laerm;59781;52.090;5.030;2022-07-23T22:06:08;39.16;35.71;47.36;;
72028;Laerm;59781;52.090;5.030;2022-07-23T22:08:34;38.36;35.28;44.94;;
72028;Laerm;59781;52.090;5.030;2022-07-23T22:11:00;37.35;35.29;41.60;;
72028;Laerm;59781;52.090;5.030;2022-07-23T22:13:26;37.83;35.23;45.68;;
72028;Laerm;59781;52.090;5.030;2022-07-23T22:15:52;37.86;35.26;47.31;;
72028;Laerm;59781;52.090;5.030;2022-07-23T22:18:18;37.42;35.00;43.87;;
72028;Laerm;59781;52.090;5.030;2022-07-23T22:20:43;37.75;35.40;43.08;;
72028;Laerm;59781;52.090;5.030;2022-07-23T22:23:09;38.65;36.09;44.56;;
72028;Laerm;59781;52.090;5.030;2022-07-23T22:25:35;38.47;36.24;42.20;;
72028;Laerm;59781;52.090;5.030;2022-07-23T22:28:04;41.19;37.31;49.96;;
72028;Laerm;59781;52.090;5.030;2022-07-23T22:30:31;39.77;36.81;44.20;;
72028;Laerm;59781;52.090;5.030;2022-07-23T22:32:58;40.18;37.17;46.23;;
72028;Laerm;59781;52.090;5.030;2022-07-23T22:35:24;39.47;37.05;44.60;;
72028;Laerm;59781;52.090;5.030;2022-07-23T22:37:50;40.27;37.54;49.24;;
72028;Laerm;59781;52.090;5.030;2022-07-23T22:40:16;40.20;37.28;44.64;;
72028;Laerm;59781;52.090;5.030;2022-07-23T22:42:44;39.17;36.30;47.69;;
72028;Laerm;59781;52.090;5.030;2022-07-23T22:45:12;39.41;36.74;45.77;;
72028;Laerm;59781;52.090;5.030;2022-07-23T22:47:39;44.44;36.15;76.96;;
72028;Laerm;59781;52.090;5.030;2022-07-23T22:50:05;38.39;36.19;42.17;;
72028;Laerm;59781;52.090;5.030;2022-07-23T22:52:32;38.38;35.81;48.57;;
72028;Laerm;59781;52.090;5.030;2022-07-23T22:54:58;38.89;36.47;45.63;;
72028;Laerm;59781;52.090;5.030;2022-07-23T22:57:24;39.34;36.55;48.65;;
72028;Laerm;59781;52.090;5.030;2022-07-23T22:59:50;38.49;36.30;41.27;;
72028;Laerm;59781;52.090;5.030;2022-07-23T23:02:17;38.37;35.73;41.50;;
72028;Laerm;59781;52.090;5.030;2022-07-23T23:04:43;39.19;36.48;44.32;;
72028;Laerm;59781;52.090;5.030;2022-07-23T23:07:09;38.94;36.02;49.09;;
72028;Laerm;59781;52.090;5.030;2022-07-23T23:09:35;38.80;36.27;45.16;;
72028;Laerm;59781;52.090;5.030;2022-07-23T23:12:01;39.43;35.68;45.25;;
72028;Laerm;59781;52.090;5.030;2022-07-23T23:14:28;37.67;35.51;45.92;;
72028;Laerm;59781;52.090;5.030;2022-07-23T23:16:54;37.91;35.53;43.26;;
72028;Laerm;59781;52.090;5.030;2022-07-23T23:19:21;39.12;36.47;45.14;;
72028;Laerm;59781;52.090;5.030;2022-07-23T23:21:46;39.69;36.57;43.37;;
72028;Laerm;59781;52.090;5.030;2022-07-23T23:24:12;39.32;36.42;46.81;;
72028;Laerm;59781;52.090;5.030;2022-07-23T23:26:38;39.69;36.67;46.10;;